Time;durP1;ratioP1;P1;durP2;ratioP2;P2;SDS_P1;SDS_P2;PMS_P1;PMS_P2;Temp;Humidity;BMP_temperature;BMP_pressure;BME280_temperature;BME280_humidity;BME280_pressure;Samples;Min_cycle;Max_cycle;Signal;HPM_P1;HPM_P2
2023/09/02 00:00:00;;;;;;;4.75;3.38;;;30.90;99.90;;;;;;4996473;28;20023;-52
2023/09/02 00:02:26;;;;;;;4.43;2.97;;;30.80;99.90;;;;;;4996708;28;20050;-53
2023/09/02 00:04:51;;;;;;;3.40;2.80;;;30.90;99.90;;;;;;4996309;28;20042;-53
2023/09/02 00:07:17;;;;;;;5.53;3.20;;;30.90;99.90;;;;;;4996230;28;20022;-52
2023/09/02 00:09:43;;;;;;;4.25;2.80;;;30.80;99.90;;;;;;4994937;28;20426;-53
2023/09/02 00:12:09;;;;;;;2.85;2.35;;;30.80;99.90;;;;;;4994850;28;20033;-52
2023/09/02 00:14:35;;;;;;;3.03;2.65;;;30.80;99.90;;;;;;4995895;28;20034;-53
2023/09/02 00:17:01;;;;;;;3.60;2.92;;;30.80;99.90;;;;;;4996406;28;20061;-52
2023/09/02 00:19:26;;;;;;;4.25;2.95;;;30.80;99.90;;;;;;4996054;28;20145;-52
2023/09/02 00:21:52;;;;;;;4.18;2.55;;;30.80;99.90;;;;;;4995966;28;20111;-53
2023/09/02 00:24:18;;;;;;;3.72;2.70;;;30.80;99.90;;;;;;4994837;28;20482;-53
2023/09/02 00:26:44;;;;;;;4.70;2.50;;;30.80;99.90;;;;;;4995876;28;20116;-53
2023/09/02 00:29:10;;;;;;;3.70;2.47;;;30.80;99.90;;;;;;4995694;28;20022;-53
2023/09/02 00:31:35;;;;;;;4.18;2.70;;;30.80;99.90;;;;;;4995822;28;20041;-53
2023/09/02 00:34:01;;;;;;;4.40;2.80;;;30.80;99.90;;;;;;4995890;28;20027;-52
2023/09/02 00:36:30;;;;;;;3.05;2.63;;;30.80;99.90;;;;;;4995614;28;20045;-53
2023/09/02 00:38:57;;;;;;;3.28;2.60;;;30.70;99.90;;;;;;4995441;28;20026;-53
2023/09/02 00:41:36;;;;;;;3.63;2.65;;;30.70;99.90;;;;;;4995497;28;20042;-53
2023/09/02 00:44:02;;;;;;;3.28;2.55;;;30.70;99.90;;;;;;4995667;28;20442;-53
2023/09/02 00:46:28;;;;;;;4.10;2.60;;;30.70;99.90;;;;;;4995681;28;20022;-52
2023/09/02 00:48:54;;;;;;;2.67;2.40;;;30.70;99.90;;;;;;4995403;28;20617;-52
2023/09/02 00:51:20;;;;;;;3.15;2.55;;;30.70;99.90;;;;;;4995339;28;20030;-52
2023/09/02 00:53:46;;;;;;;3.28;2.75;;;30.70;99.90;;;;;;4994846;28;20049;-53
2023/09/02 00:56:13;;;;;;;4.22;2.92;;;30.70;99.90;;;;;;4995237;28;20034;-52
2023/09/02 00:58:40;;;;;;;4.40;2.90;;;30.70;99.90;;;;;;4995099;28;20031;-52
2023/09/02 01:01:06;;;;;;;3.07;2.77;;;30.70;99.90;;;;;;4995492;28;20097;-52
2023/09/02 01:03:35;;;;;;;3.83;2.63;;;30.70;99.90;;;;;;4995306;28;20267;-52
2023/09/02 01:06:02;;;;;;;3.08;2.78;;;30.70;99.90;;;;;;4995335;28;20088;-53
2023/09/02 01:08:30;;;;;;;3.20;2.90;;;30.70;99.90;;;;;;4995160;28;20109;-52
2023/09/02 01:10:59;;;;;;;4.38;2.67;;;30.60;99.90;;;;;;4995080;28;20085;-52
2023/09/02 01:13:26;;;;;;;3.47;2.50;;;30.70;99.90;;;;;;4994881;28;20026;-52
2023/09/02 01:16:00;;;;;;;3.72;2.65;;;30.60;99.90;;;;;;4994713;28;20038;-52
2023/09/02 01:18:27;;;;;;;3.67;2.97;;;30.60;99.90;;;;;;4994919;28;20034;-53
2023/09/02 01:21:29;;;;;;;4.93;2.80;;;30.60;99.90;;;;;;4995013;28;20022;-53
2023/09/02 01:24:10;;;;;;;3.20;2.83;;;30.60;99.90;;;;;;4994716;28;20151;-52
2023/09/02 01:27:16;;;;;;;3.30;2.60;;;30.60;99.90;;;;;;4994832;28;20031;-52
2023/09/02 01:29:57;;;;;;;3.47;2.60;;;30.60;99.90;;;;;;4994551;28;20019;-52
2023/09/02 01:32:28;;;;;;;4.72;3.03;;;30.60;99.90;;;;;;4994533;28;20030;-52
2023/09/02 01:34:55;;;;;;;3.83;2.88;;;30.60;99.90;;;;;;4994423;28;20522;-52
2023/09/02 01:37:23;;;;;;;3.08;2.53;;;30.60;99.90;;;;;;4994632;28;20037;-52
2023/09/02 01:39:50;;;;;;;3.75;2.80;;;30.60;99.90;;;;;;4994553;28;20479;-52
2023/09/02 01:42:17;;;;;;;;;;;30.60;99.90;;;;;;4994924;28;20495;-51
2023/09/02 01:44:44;;;;;;;2.88;2.10;;;30.60;99.90;;;;;;4994415;28;19968;-52
2023/09/02 01:47:11;;;;;;;3.85;2.55;;;30.60;99.90;;;;;;4993041;28;20066;-52
2023/09/02 01:49:37;;;;;;;3.50;2.60;;;30.50;99.90;;;;;;4994263;28;20045;-50
2023/09/02 01:52:04;;;;;;;2.28;1.80;;;30.50;99.90;;;;;;4994593;28;20027;-52
2023/09/02 01:54:31;;;;;;;3.37;2.37;;;30.50;99.90;;;;;;4994242;28;20109;-52
2023/09/02 01:56:57;;;;;;;3.70;2.38;;;30.50;99.90;;;;;;4994191;28;20601;-52
2023/09/02 01:59:23;;;;;;;3.20;2.20;;;30.60;99.90;;;;;;4994073;28;20035;-52
2023/09/02 02:01:49;;;;;;;8.00;2.88;;;30.50;99.90;;;;;;4994491;28;20518;-52
2023/09/02 02:04:33;;;;;;;3.85;2.92;;;30.50;99.90;;;;;;4993107;28;20478;-52
2023/09/02 02:07:13;;;;;;;3.00;2.25;;;30.50;99.90;;;;;;4994100;28;20102;-52
2023/09/02 02:09:42;;;;;;;3.38;2.15;;;30.50;99.90;;;;;;4993866;28;20028;-52
2023/09/02 02:12:09;;;;;;;2.63;1.75;;;30.50;99.90;;;;;;4993767;28;20029;-52
2023/09/02 02:14:35;;;;;;;3.83;2.03;;;30.50;99.90;;;;;;4993946;28;20027;-52
2023/09/02 02:17:03;;;;;;;3.17;2.42;;;30.50;99.90;;;;;;4992523;28;20093;-52
2023/09/02 02:19:29;;;;;;;2.97;1.98;;;30.50;99.90;;;;;;4993534;28;20491;-52
2023/09/02 02:21:55;;;;;;;3.42;2.25;;;30.50;99.90;;;;;;4993602;28;20030;-52
2023/09/02 02:24:21;;;;;;;3.33;2.13;;;30.40;99.90;;;;;;4993643;28;20029;-52
2023/09/02 02:26:47;;;;;;;3.45;2.00;;;30.40;99.90;;;;;;4993589;28;20034;-53
2023/09/02 02:29:13;;;;;;;3.45;2.22;;;30.40;99.90;;;;;;4993656;28;20026;-52
2023/09/02 02:31:38;;;;;;;5.40;2.28;;;30.40;99.90;;;;;;4993603;28;20032;-52
2023/09/02 02:34:04;;;;;;;3.47;2.30;;;30.40;99.90;;;;;;4994069;28;20073;-52
2023/09/02 02:36:30;;;;;;;3.47;2.03;;;30.40;99.90;;;;;;4992227;28;20445;-52
2023/09/02 02:38:55;;;;;;;1.77;1.67;;;30.40;99.90;;;;;;4992168;28;20155;-52
2023/09/02 02:41:21;;;;;;;2.33;2.00;;;30.40;99.90;;;;;;4993353;28;20030;-52
2023/09/02 02:43:47;;;;;;;2.10;1.90;;;30.40;99.90;;;;;;4993340;28;20073;-51
2023/09/02 02:46:13;;;;;;;3.40;2.22;;;30.40;99.90;;;;;;4993250;28;20114;-52
2023/09/02 02:48:38;;;;;;;2.53;1.88;;;30.40;99.90;;;;;;4993539;28;20094;-52
2023/09/02 02:51:04;;;;;;;2.80;2.10;;;30.50;99.90;;;;;;4993307;28;20030;-53
2023/09/02 02:53:30;;;;;;;2.80;2.13;;;30.40;99.90;;;;;;4993142;28;20026;-53
2023/09/02 02:55:56;;;;;;;2.65;1.90;;;30.40;99.90;;;;;;4993137;28;20034;-52
2023/09/02 02:58:22;;;;;;;3.00;2.10;;;30.40;99.90;;;;;;4993126;28;20026;-52
2023/09/02 03:00:49;;;;;;;2.65;2.15;;;30.40;99.90;;;;;;4993486;28;20038;-52
2023/09/02 03:03:15;;;;;;;2.28;1.67;;;30.40;99.90;;;;;;4993002;28;20080;-52
2023/09/02 03:05:42;;;;;;;4.90;2.10;;;30.40;99.90;;;;;;4993079;28;20077;-53
2023/09/02 03:08:09;;;;;;;2.95;2.05;;;30.40;99.90;;;;;;4993197;28;20502;-52
2023/09/02 03:10:35;;;;;;;3.60;2.35;;;30.40;99.90;;;;;;4993127;28;20035;-53
2023/09/02 03:13:02;;;;;;;3.50;2.63;;;30.40;99.90;;;;;;4992907;28;20026;-52
2023/09/02 03:15:28;;;;;;;2.67;2.10;;;30.40;99.90;;;;;;4992556;28;20034;-52
2023/09/02 03:17:54;;;;;;;3.17;2.50;;;30.40;99.90;;;;;;4992878;28;20069;-53
2023/09/02 03:20:20;;;;;;;2.60;1.90;;;30.40;99.90;;;;;;4992845;28;20022;-52
2023/09/02 03:22:46;;;;;;;2.30;1.90;;;30.40;99.90;;;;;;4992753;28;20046;-52
2023/09/02 03:25:12;;;;;;;2.78;1.70;;;30.40;99.90;;;;;;5007886;28;20034;-51
2023/09/02 03:27:39;;;;;;;2.72;2.17;;;30.40;99.90;;;;;;4993152;28;20031;-52
2023/09/02 03:30:06;;;;;;;2.43;1.90;;;30.40;99.90;;;;;;4992919;28;20022;-52
2023/09/02 03:32:32;;;;;;;3.00;2.05;;;30.40;99.90;;;;;;4992795;28;20322;-52
2023/09/02 03:34:58;;;;;;;2.50;1.90;;;30.40;99.90;;;;;;4992790;28;20034;-52
2023/09/02 03:37:24;;;;;;;3.50;1.98;;;30.40;99.90;;;;;;4992663;28;20133;-53
2023/09/02 03:39:50;;;;;;;2.90;1.90;;;30.40;99.90;;;;;;4991631;28;20466;-52
2023/09/02 03:42:16;;;;;;;2.55;1.90;;;30.30;99.90;;;;;;4991572;28;20034;-53
2023/09/02 03:44:41;;;;;;;3.78;2.25;;;30.30;99.90;;;;;;4992961;28;20033;-54
2023/09/02 03:47:07;;;;;;;2.83;2.40;;;30.30;99.90;;;;;;5007897;28;20058;-53
2023/09/02 03:49:33;;;;;;;3.35;2.28;;;30.30;99.90;;;;;;4992734;28;20035;-52
2023/09/02 03:51:58;;;;;;;6.13;2.42;;;30.30;99.90;;;;;;4992617;28;20106;-52
2023/09/02 03:54:24;;;;;;;3.72;2.47;;;30.30;99.90;;;;;;4992750;28;20049;-51
2023/09/02 03:56:50;;;;;;;7.68;2.70;;;30.30;99.90;;;;;;4992510;28;20034;-52
2023/09/02 03:59:16;;;;;;;3.63;2.78;;;30.30;99.90;;;;;;4992600;28;20535;-53
2023/09/02 04:01:41;;;;;;;2.85;2.33;;;30.30;99.90;;;;;;4992826;28;20141;-53
2023/09/02 04:04:07;;;;;;;3.25;2.40;;;30.30;99.90;;;;;;4992439;28;20023;-51
2023/09/02 04:06:33;;;;;;;4.65;2.97;;;30.30;99.90;;;;;;4992880;28;20489;-52
2023/09/02 04:08:59;;;;;;;4.25;3.22;;;30.20;99.90;;;;;;4992374;28;20029;-51
2023/09/02 04:11:25;;;;;;;3.22;2.90;;;30.20;99.90;;;;;;4992338;28;20046;-52
2023/09/02 04:13:50;;;;;;;3.80;2.88;;;30.20;99.90;;;;;;4992522;28;20018;-52
2023/09/02 04:16:16;;;;;;;5.68;3.05;;;30.20;99.90;;;;;;4992305;28;20450;-52
2023/09/02 04:18:42;;;;;;;3.95;2.67;;;30.20;99.90;;;;;;4992536;28;20023;-53
2023/09/02 04:21:09;;;;;;;3.67;2.53;;;30.20;99.90;;;;;;4992308;28;20038;-53
2023/09/02 04:23:34;;;;;;;3.80;2.80;;;30.20;99.90;;;;;;4992300;28;20029;-53
2023/09/02 04:26:01;;;;;;;3.55;2.55;;;30.20;99.90;;;;;;4992276;28;20105;-53
2023/09/02 04:28:27;;;;;;;3.13;2.40;;;30.20;99.90;;;;;;4994522;28;20026;-53
2023/09/02 04:30:57;;;;;;;2.95;2.25;;;30.20;99.90;;;;;;4995784;28;20497;-53
2023/09/02 04:33:26;;;;;;;3.20;2.40;;;30.10;99.90;;;;;;5010675;28;20356;-53
2023/09/02 04:35:52;;;;;;;2.80;1.90;;;30.20;99.90;;;;;;4995696;28;20038;-53
2023/09/02 04:38:17;;;;;;;2.80;2.20;;;30.10;99.90;;;;;;4995618;28;20030;-53
2023/09/02 04:40:45;;;;;;;1.90;1.65;;;30.10;99.90;;;;;;4995881;28;20428;-53
2023/09/02 04:43:12;;;;;;;3.25;2.38;;;30.10;99.90;;;;;;4995807;28;20130;-53
2023/09/02 04:45:40;;;;;;;3.03;1.83;;;30.10;99.90;;;;;;4994323;28;20030;-54
2023/09/02 04:48:06;;;;;;;;;;;30.10;99.90;;;;;;4995950;28;20105;-53
2023/09/02 04:50:33;;;;;;;2.72;2.17;;;30.10;99.90;;;;;;4995426;28;19936;-52
2023/09/02 04:52:59;;;;;;;4.55;2.55;;;30.10;99.90;;;;;;4995435;28;20030;-53
2023/09/02 04:55:26;;;;;;;3.93;2.57;;;30.00;99.90;;;;;;4995365;28;20065;-51
2023/09/02 04:57:53;;;;;;;3.60;2.40;;;30.00;99.90;;;;;;4994001;28;20653;-52
2023/09/02 05:00:28;;;;;;;4.00;2.75;;;30.00;99.90;;;;;;4995307;28;20376;-52
2023/09/02 05:02:55;;;;;;;3.78;2.45;;;30.00;99.90;;;;;;4995034;28;20043;-53
2023/09/02 05:05:22;;;;;;;3.27;1.97;;;30.00;99.90;;;;;;4995136;28;20109;-52
2023/09/02 05:07:48;;;;;;;3.45;2.38;;;30.00;99.90;;;;;;4995214;28;20026;-52
2023/09/02 05:10:15;;;;;;;3.90;2.00;;;30.00;99.90;;;;;;4995317;28;20089;-51
2023/09/02 05:12:41;;;;;;;3.83;2.33;;;30.00;99.90;;;;;;5010015;28;20109;-52
2023/09/02 05:15:08;;;;;;;4.35;2.65;;;30.00;99.90;;;;;;4994759;28;20038;-52
2023/09/02 05:17:34;;;;;;;3.17;2.10;;;30.00;99.90;;;;;;4993723;28;20035;-53
2023/09/02 05:20:00;;;;;;;4.15;2.05;;;29.90;99.90;;;;;;5009912;28;20037;-53
2023/09/02 05:22:26;;;;;;;4.20;2.42;;;30.00;99.90;;;;;;5009713;28;20060;-52
2023/09/02 05:24:52;;;;;;;3.17;2.40;;;29.90;99.90;;;;;;4994920;28;20058;-53
2023/09/02 05:27:19;;;;;;;5.47;2.42;;;29.90;99.90;;;;;;4994831;28;20471;-52
2023/09/02 05:29:45;;;;;;;6.78;2.20;;;29.90;99.90;;;;;;4994908;28;20467;-52
2023/09/02 05:32:12;;;;;;;4.38;2.10;;;29.90;99.90;;;;;;4994765;28;20037;-52
2023/09/02 05:34:38;;;;;;;4.00;2.30;;;29.90;99.90;;;;;;4994362;28;20106;-52
2023/09/02 05:37:04;;;;;;;3.58;2.28;;;29.90;99.90;;;;;;4994553;28;20113;-52
2023/09/02 05:39:30;;;;;;;4.15;2.08;;;29.90;99.90;;;;;;4994421;28;20027;-53
2023/09/02 05:41:55;;;;;;;2.92;2.03;;;29.80;99.90;;;;;;4994455;28;20479;-53
2023/09/02 05:44:21;;;;;;;2.50;2.20;;;29.90;99.90;;;;;;4994427;28;20037;-53
2023/09/02 05:46:47;;;;;;;3.47;1.90;;;29.80;99.90;;;;;;4994563;28;20467;-53
2023/09/02 05:49:13;;;;;;;3.38;1.92;;;29.90;99.90;;;;;;4994285;28;20080;-54
2023/09/02 05:51:39;;;;;;;3.35;2.58;;;29.80;99.90;;;;;;4994258;28;20113;-52
2023/09/02 05:54:09;;;;;;;2.65;1.75;;;29.80;99.90;;;;;;4994221;28;20042;-53
2023/09/02 05:56:38;;;;;;;4.05;2.30;;;29.80;99.90;;;;;;4994086;28;20034;-54
2023/09/02 05:59:04;;;;;;;3.33;1.90;;;29.80;99.90;;;;;;4994030;28;20578;-50
2023/09/02 06:01:31;;;;;;;2.73;2.00;;;29.80;99.90;;;;;;4993942;28;20050;-52
2023/09/02 06:03:57;;;;;;;4.50;2.97;;;29.80;99.90;;;;;;4994062;28;20471;-53
2023/09/02 06:06:22;;;;;;;5.68;2.22;;;29.80;99.90;;;;;;4993908;28;20026;-53
2023/09/02 06:08:49;;;;;;;2.95;2.08;;;29.80;99.90;;;;;;4994279;28;20033;-53
2023/09/02 06:11:15;;;;;;;2.78;2.03;;;29.80;99.90;;;;;;4993871;28;20026;-53
2023/09/02 06:13:41;;;;;;;4.30;2.07;;;29.80;99.90;;;;;;4993810;28;20030;-53
2023/09/02 06:16:07;;;;;;;2.72;2.05;;;29.70;99.90;;;;;;4993752;28;20035;-52
2023/09/02 06:18:35;;;;;;;5.43;2.57;;;29.70;99.90;;;;;;4993748;28;20026;-52
2023/09/02 06:21:13;;;;;;;5.38;2.40;;;29.70;99.90;;;;;;4993827;28;20049;-53
2023/09/02 06:23:43;;;;;;;5.10;2.40;;;29.70;99.90;;;;;;4992255;28;20064;-51
2023/09/02 06:26:11;;;;;;;4.57;2.65;;;29.70;99.90;;;;;;4993568;28;20398;-51
2023/09/02 06:28:38;;;;;;;2.97;2.10;;;29.70;99.90;;;;;;5008673;28;20429;-52
2023/09/02 06:31:07;;;;;;;3.28;2.10;;;29.70;99.90;;;;;;4993786;28;20036;-52
2023/09/02 06:33:34;;;;;;;4.35;2.42;;;29.70;99.90;;;;;;5008574;28;20025;-52
2023/09/02 06:36:00;;;;;;;4.43;2.35;;;29.70;99.90;;;;;;4993418;28;20042;-53
2023/09/02 06:38:25;;;;;;;5.70;2.60;;;29.70;99.90;;;;;;4993305;28;20106;-53
2023/09/02 06:40:51;;;;;;;5.05;2.58;;;29.60;99.90;;;;;;4993495;28;20112;-53
2023/09/02 06:43:17;;;;;;;4.28;2.53;;;29.60;99.90;;;;;;4993573;28;20022;-53
2023/09/02 06:45:44;;;;;;;3.92;2.42;;;29.60;99.90;;;;;;4993236;28;20498;-53
2023/09/02 06:48:10;;;;;;;6.55;2.40;;;29.60;99.90;;;;;;4993292;28;20556;-53
2023/09/02 06:50:36;;;;;;;4.35;3.08;;;29.60;99.90;;;;;;5007789;28;20042;-52
2023/09/02 06:53:01;;;;;;;6.10;2.80;;;29.60;99.90;;;;;;4991822;28;20022;-53
2023/09/02 06:55:27;;;;;;;5.28;2.90;;;29.60;99.90;;;;;;4992955;28;20113;-53
2023/09/02 06:57:53;;;;;;;4.88;2.42;;;29.60;99.90;;;;;;4991729;28;20053;-53
2023/09/02 07:00:19;;;;;;;4.93;2.25;;;29.60;99.90;;;;;;4993300;28;20022;-53
2023/09/02 07:02:44;;;;;;;3.80;2.30;;;29.60;99.90;;;;;;4991699;28;20047;-53
2023/09/02 07:05:10;;;;;;;4.38;2.22;;;29.60;99.90;;;;;;4993063;28;20034;-53
2023/09/02 07:07:37;;;;;;;3.95;2.42;;;29.60;99.90;;;;;;5007947;28;20038;-51
2023/09/02 07:10:05;;;;;;;3.13;2.08;;;29.60;99.90;;;;;;4992972;28;20117;-53
2023/09/02 07:12:32;;;;;;;4.32;2.28;;;29.60;99.90;;;;;;4992870;28;20033;-54
2023/09/02 07:14:58;;;;;;;2.58;2.08;;;29.60;99.90;;;;;;4992903;28;20110;-53
2023/09/02 07:17:26;;;;;;;4.25;2.10;;;29.60;99.90;;;;;;4992808;28;20185;-54
2023/09/02 07:19:51;;;;;;;3.97;2.40;;;29.60;99.90;;;;;;4993030;28;20026;-54
2023/09/02 07:22:17;;;;;;;3.55;2.03;;;29.60;99.90;;;;;;4992703;28;20463;-54
2023/09/02 07:24:44;;;;;;;5.78;2.15;;;29.60;99.90;;;;;;4992772;28;20019;-56
2023/09/02 07:27:10;;;;;;;5.22;2.33;;;29.60;99.90;;;;;;4992759;28;20478;-54
2023/09/02 07:29:35;;;;;;;3.78;2.35;;;29.60;99.90;;;;;;4992764;28;20042;-54
2023/09/02 07:32:01;;;;;;;3.25;2.00;;;29.60;99.90;;;;;;4992615;28;20037;-53
2023/09/02 07:34:27;;;;;;;4.40;2.20;;;29.60;99.90;;;;;;4992752;28;20030;-53
2023/09/02 07:36:52;;;;;;;3.88;2.22;;;29.60;99.90;;;;;;4992890;28;20038;-52
2023/09/02 07:39:19;;;;;;;4.88;2.35;;;29.60;99.90;;;;;;4992651;28;20026;-53
2023/09/02 07:41:46;;;;;;;4.05;2.00;;;29.60;99.90;;;;;;4992727;28;20026;-54
2023/09/02 07:44:12;;;;;;;4.70;2.17;;;29.60;99.90;;;;;;4992569;28;20382;-53
2023/09/02 07:46:38;;;;;;;2.55;1.95;;;29.60;99.90;;;;;;4992570;28;20034;-53
2023/09/02 07:49:03;;;;;;;3.75;1.92;;;29.70;99.90;;;;;;4992588;28;20037;-53
2023/09/02 07:51:29;;;;;;;3.38;2.40;;;29.70;99.90;;;;;;4992578;28;20136;-53
2023/09/02 07:53:55;;;;;;;3.22;2.05;;;29.70;99.90;;;;;;4992535;28;20029;-54
2023/09/02 07:56:22;;;;;;;4.30;2.53;;;29.70;99.90;;;;;;4992590;28;20034;-53
2023/09/02 07:58:49;;;;;;;3.42;2.03;;;29.70;99.90;;;;;;4991229;28;20054;-54
2023/09/02 08:01:15;;;;;;;3.70;2.00;;;29.70;99.90;;;;;;5007301;28;20070;-53
2023/09/02 08:03:41;;;;;;;3.22;2.30;;;29.70;99.90;;;;;;4995100;28;20080;-54
2023/09/02 08:06:08;;;;;;;3.83;2.20;;;29.70;99.90;;;;;;4996081;28;20030;-53
2023/09/02 08:08:34;;;;;;;3.75;2.58;;;29.70;99.90;;;;;;4996242;28;20533;-54
2023/09/02 08:11:04;;;;;;;3.63;2.08;;;29.70;99.90;;;;;;4996102;28;20114;-55
2023/09/02 08:13:31;;;;;;;2.95;2.25;;;29.70;99.90;;;;;;4996051;28;20487;-54
2023/09/02 08:15:58;;;;;;;5.45;2.13;;;29.70;99.90;;;;;;4994743;28;20446;-54
2023/09/02 08:18:23;;;;;;;5.00;1.92;;;29.70;99.90;;;;;;4996167;28;20022;-54
2023/09/02 08:20:49;;;;;;;4.15;2.05;;;29.70;99.90;;;;;;4995820;28;20510;-54
2023/09/02 08:23:15;;;;;;;3.55;2.22;;;29.80;99.90;;;;;;4995772;28;20046;-54
2023/09/02 08:25:41;;;;;;;4.13;2.58;;;29.80;99.90;;;;;;4995728;28;20027;-53
2023/09/02 08:28:07;;;;;;;4.13;2.35;;;29.80;99.90;;;;;;4995866;28;20023;-55
2023/09/02 08:30:32;;;;;;;2.88;2.03;;;29.80;99.90;;;;;;4995749;28;20035;-53
2023/09/02 08:32:58;;;;;;;4.13;2.35;;;29.80;99.90;;;;;;4995658;28;20026;-53
2023/09/02 08:35:24;;;;;;;4.18;2.33;;;29.80;99.90;;;;;;5010792;28;20486;-52
2023/09/02 08:37:51;;;;;;;2.83;2.08;;;29.80;99.90;;;;;;4995641;28;20453;-52
2023/09/02 08:40:17;;;;;;;4.80;1.98;;;29.80;99.90;;;;;;4995613;28;20029;-51
2023/09/02 08:42:43;;;;;;;3.35;2.45;;;29.80;99.90;;;;;;4995532;28;20030;-52
2023/09/02 08:45:11;;;;;;;4.45;2.05;;;29.80;99.90;;;;;;4995481;28;20029;-53
2023/09/02 08:47:39;;;;;;;6.20;2.28;;;29.80;99.90;;;;;;4993966;28;20032;-53
2023/09/02 08:50:09;;;;;;;2.65;1.80;;;29.80;99.90;;;;;;4995366;28;20053;-53
2023/09/02 08:52:36;;;;;;;3.63;2.17;;;29.80;99.90;;;;;;4995276;28;20027;-52
2023/09/02 08:55:03;;;;;;;8.00;2.78;;;29.80;99.90;;;;;;4995220;28;20520;-53
2023/09/02 08:57:29;;;;;;;4.60;2.30;;;29.80;99.90;;;;;;5010233;28;20049;-54
2023/09/02 08:59:55;;;;;;;5.80;2.25;;;29.90;99.90;;;;;;4994252;28;20026;-53
2023/09/02 09:02:22;;;;;;;6.78;2.30;;;29.80;99.90;;;;;;4995056;28;20120;-52
2023/09/02 09:04:48;;;;;;;4.32;2.03;;;29.80;99.90;;;;;;4995118;28;20042;-53
2023/09/02 09:07:19;;;;;;;3.38;2.13;;;29.80;99.90;;;;;;4995319;28;20133;-53
2023/09/02 09:09:47;;;;;;;3.67;1.65;;;29.80;99.90;;;;;;4994965;28;20046;-52
2023/09/02 09:12:13;;;;;;;5.05;2.00;;;29.90;99.90;;;;;;4994939;28;20430;-51
2023/09/02 09:14:45;;;;;;;6.00;2.50;;;29.90;99.90;;;;;;4994585;28;20479;-53
2023/09/02 09:17:13;;;;;;;4.00;2.20;;;29.90;99.90;;;;;;4994912;28;20372;-52
2023/09/02 09:19:40;;;;;;;3.90;2.22;;;29.90;99.90;;;;;;4994846;28;20091;-52
2023/09/02 09:22:05;;;;;;;7.70;2.23;;;29.90;99.90;;;;;;4994838;28;20036;-52
2023/09/02 09:24:31;;;;;;;4.55;2.30;;;29.90;99.90;;;;;;4994692;28;20018;-53
2023/09/02 09:27:02;;;;;;;6.28;2.40;;;29.90;99.90;;;;;;4995104;28;20078;-53
2023/09/02 09:29:40;;;;;;;4.28;2.22;;;29.90;99.90;;;;;;4994849;28;20037;-53
2023/09/02 09:32:11;;;;;;;4.10;2.00;;;29.90;99.90;;;;;;4994504;28;20487;-54
2023/09/02 09:34:38;;;;;;;2.75;1.55;;;29.90;99.90;;;;;;4994731;28;20027;-55
2023/09/02 09:37:04;;;;;;;3.35;1.95;;;29.90;99.90;;;;;;4994407;28;20038;-54
2023/09/02 09:39:44;;;;;;;6.75;2.15;;;29.90;99.90;;;;;;4994691;28;20054;-52
2023/09/02 09:42:12;;;;;;;4.78;2.33;;;29.90;99.90;;;;;;4994412;28;20030;-55
2023/09/02 09:45:10;;;;;;;3.95;2.05;;;29.90;99.90;;;;;;4994326;28;20022;-54
2023/09/02 09:47:39;;;;;;;6.30;2.35;;;30.00;99.90;;;;;;4972074;28;20117;-54
2023/09/02 09:50:15;;;;;;;4.22;2.10;;;30.00;99.90;;;;;;4993183;28;20027;-54
2023/09/02 09:52:59;;;;;;;6.50;1.92;;;30.00;99.90;;;;;;4993087;28;20030;-54
2023/09/02 09:55:25;;;;;;;3.35;2.15;;;29.90;99.90;;;;;;4992979;28;20030;-54
2023/09/02 09:57:55;;;;;;;3.05;2.10;;;29.90;99.90;;;;;;4994090;28;20058;-53
2023/09/02 10:00:21;;;;;;;3.28;2.10;;;30.00;99.90;;;;;;4994046;28;20026;-55
2023/09/02 10:02:54;;;;;;;4.40;2.45;;;30.00;99.90;;;;;;4993820;28;20046;-54
2023/09/02 10:05:24;;;;;;;4.07;2.47;;;30.00;99.90;;;;;;4993977;28;20088;-53
2023/09/02 10:08:01;;;;;;;4.47;2.75;;;30.00;99.90;;;;;;5009149;28;20505;-54
2023/09/02 10:10:35;;;;;;;3.78;2.45;;;30.00;99.90;;;;;;4994147;28;20022;-55
2023/09/02 10:13:01;;;;;;;6.07;2.50;;;30.00;99.90;;;;;;4994084;28;20097;-55
2023/09/02 10:15:28;;;;;;;4.13;2.80;;;30.00;99.90;;;;;;4993787;28;20054;-53
2023/09/02 10:17:59;;;;;;;4.00;2.13;;;30.00;99.90;;;;;;4993888;28;20049;-54
2023/09/02 10:20:27;;;;;;;5.43;2.25;;;30.00;99.90;;;;;;5008860;28;20518;-54
2023/09/02 10:22:57;;;;;;;3.95;2.30;;;30.00;99.90;;;;;;4993683;28;20026;-55
2023/09/02 10:25:29;;;;;;;3.22;2.10;;;30.10;99.90;;;;;;4991657;28;20022;-55
2023/09/02 10:28:04;;;;;;;4.20;2.30;;;30.10;99.90;;;;;;4993423;28;20018;-59
2023/09/02 10:30:43;;;;;;;4.53;2.60;;;30.10;99.90;;;;;;4993828;28;20387;-54
2023/09/02 10:33:33;;;;;;;5.70;2.58;;;30.10;99.90;;;;;;4992303;28;20025;-54
2023/09/02 10:36:02;;;;;;;4.20;2.70;;;30.10;99.90;;;;;;4993474;28;20121;-55
2023/09/02 10:38:32;;;;;;;5.35;3.30;;;30.20;99.90;;;;;;4993384;28;20038;-54
2023/09/02 10:41:12;;;;;;;5.45;2.75;;;30.20;99.90;;;;;;4992197;28;20026;-54
2023/09/02 10:43:40;;;;;;;6.32;2.70;;;30.20;99.90;;;;;;4993328;28;20026;-55
2023/09/02 10:46:08;;;;;;;4.80;2.42;;;30.20;99.90;;;;;;5008271;28;20027;-55
2023/09/02 10:48:37;;;;;;;4.68;2.50;;;30.20;99.90;;;;;;4993356;28;20356;-54
2023/09/02 10:51:04;;;;;;;7.07;2.25;;;30.30;99.90;;;;;;4993475;28;20083;-55
2023/09/02 10:53:48;;;;;;;;;;;30.30;99.90;;;;;;4993597;28;20022;-54
2023/09/02 10:56:30;;;;;;;6.22;2.63;;;30.30;99.90;;;;;;4993060;28;19956;-53
2023/09/02 10:59:07;;;;;;;4.72;2.55;;;30.30;99.90;;;;;;4992914;28;20019;-55
2023/09/02 11:01:43;;;;;;;4.35;2.60;;;30.30;99.90;;;;;;4992954;28;20043;-54
2023/09/02 11:04:09;;;;;;;3.75;2.20;;;30.30;99.90;;;;;;4993013;28;20015;-54
2023/09/02 11:06:35;;;;;;;5.88;2.72;;;30.30;99.90;;;;;;4993316;28;20446;-54
2023/09/02 11:09:00;;;;;;;5.15;2.53;;;30.30;99.90;;;;;;4993121;28;20018;-55
2023/09/02 11:12:09;;;;;;;5.90;2.70;;;30.30;99.90;;;;;;4992899;28;20383;-54
2023/09/02 11:14:34;;;;;;;8.02;2.40;;;30.30;99.90;;;;;;4990100;28;20039;-54
2023/09/02 11:17:27;;;;;;;4.75;2.80;;;30.40;99.90;;;;;;4992739;28;20449;-54
2023/09/02 11:19:57;;;;;;;6.35;2.42;;;30.40;99.90;;;;;;4988440;28;20117;-55
2023/09/02 11:23:02;;;;;;;4.82;2.40;;;30.30;99.90;;;;;;4992620;28;20023;-53
2023/09/02 11:25:34;;;;;;;5.38;3.10;;;30.30;99.90;;;;;;4992841;28;20037;-54
2023/09/02 11:28:05;;;;;;;3.85;2.63;;;30.30;99.90;;;;;;4992683;28;20570;-54
2023/09/02 11:30:33;;;;;;;5.28;2.38;;;30.40;99.90;;;;;;4992640;28;20463;-54
2023/09/02 11:33:00;;;;;;;5.25;2.70;;;30.30;99.90;;;;;;4992808;28;20026;-53
2023/09/02 11:35:28;;;;;;;5.72;2.30;;;30.30;99.90;;;;;;4992725;28;20105;-53
2023/09/02 11:37:54;;;;;;;4.13;2.50;;;30.30;99.90;;;;;;4995877;28;20030;-54
2023/09/02 11:40:24;;;;;;;4.43;2.38;;;30.30;99.90;;;;;;4995521;28;20057;-54
2023/09/02 11:42:50;;;;;;;5.47;2.70;;;30.30;99.90;;;;;;4996641;28;20046;-53
2023/09/02 11:45:16;;;;;;;5.27;2.40;;;30.30;99.90;;;;;;4996611;28;20065;-53
2023/09/02 11:47:42;;;;;;;6.38;2.22;;;30.30;99.90;;;;;;4996375;28;20403;-53
2023/09/02 11:50:14;;;;;;;6.75;3.05;;;30.30;99.90;;;;;;4996770;28;20023;-53
2023/09/02 11:52:41;;;;;;;3.55;2.35;;;30.30;99.90;;;;;;4996208;28;20121;-53
2023/09/02 11:55:12;;;;;;;7.78;2.83;;;30.30;99.90;;;;;;4996391;28;20029;-54
2023/09/02 11:57:38;;;;;;;3.88;2.50;;;30.30;99.90;;;;;;4995104;28;20487;-53
2023/09/02 12:00:07;;;;;;;5.53;2.60;;;30.30;99.90;;;;;;4996510;28;20435;-53
2023/09/02 12:02:37;;;;;;;4.93;2.33;;;30.30;99.90;;;;;;4996300;28;20514;-53
2023/09/02 12:05:06;;;;;;;5.63;2.60;;;30.30;99.90;;;;;;4996302;28;20050;-53
2023/09/02 12:07:36;;;;;;;6.30;2.78;;;30.30;99.90;;;;;;4994887;28;20027;-54
2023/09/02 12:10:07;;;;;;;5.03;2.60;;;30.30;99.90;;;;;;4996129;28;20029;-54
2023/09/02 12:12:34;;;;;;;4.53;2.65;;;30.30;99.90;;;;;;4996160;28;20026;-52
2023/09/02 12:15:03;;;;;;;3.92;2.72;;;30.30;99.90;;;;;;4996191;28;20422;-53
2023/09/02 12:17:29;;;;;;;5.20;2.33;;;30.30;99.90;;;;;;4996125;28;20117;-54
2023/09/02 12:19:55;;;;;;;5.28;2.60;;;30.30;99.90;;;;;;4996026;28;20030;-54
2023/09/02 12:22:22;;;;;;;5.95;2.50;;;30.30;99.90;;;;;;4995895;28;20022;-54
2023/09/02 12:24:48;;;;;;;5.55;2.97;;;30.30;99.90;;;;;;4995973;28;20026;-53
2023/09/02 12:27:17;;;;;;;7.38;3.63;;;30.30;99.90;;;;;;4995761;28;20053;-54
2023/09/02 12:29:56;;;;;;;3.58;2.78;;;30.30;99.90;;;;;;4995950;28;20022;-54
2023/09/02 12:32:22;;;;;;;7.03;3.28;;;30.30;99.90;;;;;;4995738;28;20058;-55
2023/09/02 12:34:48;;;;;;;6.38;3.35;;;30.30;99.90;;;;;;5010639;28;20029;-54
2023/09/02 12:37:21;;;;;;;9.23;4.25;;;30.30;99.90;;;;;;4995670;28;20042;-52
2023/09/02 12:39:48;;;;;;;7.05;3.63;;;30.30;99.90;;;;;;5010636;28;20418;-52
2023/09/02 12:42:25;;;;;;;6.35;3.70;;;30.30;99.90;;;;;;4995653;28;20026;-52
2023/09/02 12:44:53;;;;;;;5.03;3.70;;;30.30;99.90;;;;;;4995690;28;20034;-53
2023/09/02 12:47:24;;;;;;;7.47;3.90;;;30.30;99.90;;;;;;5010517;28;20034;-53
2023/09/02 12:49:58;;;;;;;5.22;3.90;;;30.40;99.90;;;;;;4994648;28;20023;-52
2023/09/02 12:52:29;;;;;;;8.68;4.90;;;30.40;99.90;;;;;;4995425;28;20391;-55